臺北終端管制區 - 桃園南區雷達席

METAR RCTP 231900Z 15005KT 9999 FEW020 19/16 Q1021 NOSIG RMK A3015(T)=

站台狀態:Online
最後更新:2020-02-24 03:00:02